sensor_id;sensor_type;location;lat;lon;timestamp;temperature;humidity
53876;DHT22;39789;53.216;5.624;2022-08-21T00:00:08;16.00;99.90
53876;DHT22;39789;53.216;5.624;2022-08-21T00:02:34;16.00;99.90
53876;DHT22;39789;53.216;5.624;2022-08-21T00:05:00;15.90;99.90
53876;DHT22;39789;53.216;5.624;2022-08-21T00:07:26;15.90;99.90
53876;DHT22;39789;53.216;5.624;2022-08-21T00:09:52;16.00;99.90
53876;DHT22;39789;53.216;5.624;2022-08-21T00:12:19;15.80;99.90
53876;DHT22;39789;53.216;5.624;2022-08-21T00:14:45;15.70;99.90
53876;DHT22;39789;53.216;5.624;2022-08-21T00:17:10;15.70;99.90
53876;DHT22;39789;53.216;5.624;2022-08-21T00:19:36;15.70;99.90
53876;DHT22;39789;53.216;5.624;2022-08-21T00:22:02;15.60;99.90
53876;DHT22;39789;53.216;5.624;2022-08-21T00:24:27;15.60;99.90
53876;DHT22;39789;53.216;5.624;2022-08-21T00:26:53;15.70;99.90
53876;DHT22;39789;53.216;5.624;2022-08-21T00:29:19;15.70;99.90
53876;DHT22;39789;53.216;5.624;2022-08-21T00:31:45;15.70;99.90
53876;DHT22;39789;53.216;5.624;2022-08-21T00:34:12;15.90;99.90
53876;DHT22;39789;53.216;5.624;2022-08-21T00:36:39;15.50;99.90
53876;DHT22;39789;53.216;5.624;2022-08-21T00:39:06;15.60;99.90
53876;DHT22;39789;53.216;5.624;2022-08-21T00:41:33;15.70;99.90
53876;DHT22;39789;53.216;5.624;2022-08-21T00:43:59;15.70;99.90
53876;DHT22;39789;53.216;5.624;2022-08-21T00:46:25;15.70;99.90
53876;DHT22;39789;53.216;5.624;2022-08-21T00:48:51;15.80;99.90
53876;DHT22;39789;53.216;5.624;2022-08-21T00:51:20;15.70;99.90
53876;DHT22;39789;53.216;5.624;2022-08-21T00:53:51;15.80;99.90
53876;DHT22;39789;53.216;5.624;2022-08-21T00:56:19;15.80;99.90
53876;DHT22;39789;53.216;5.624;2022-08-21T00:58:46;15.80;99.90
53876;DHT22;39789;53.216;5.624;2022-08-21T01:01:12;15.80;99.90
53876;DHT22;39789;53.216;5.624;2022-08-21T01:03:38;15.90;99.90
53876;DHT22;39789;53.216;5.624;2022-08-21T01:06:04;15.80;99.90
53876;DHT22;39789;53.216;5.624;2022-08-21T01:08:31;15.80;99.90
53876;DHT22;39789;53.216;5.624;2022-08-21T01:10:58;15.80;99.90
53876;DHT22;39789;53.216;5.624;2022-08-21T01:13:25;15.90;99.90
53876;DHT22;39789;53.216;5.624;2022-08-21T01:15:53;15.90;99.90
53876;DHT22;39789;53.216;5.624;2022-08-21T01:18:20;15.90;99.90
53876;DHT22;39789;53.216;5.624;2022-08-21T01:21:09;15.90;99.90
53876;DHT22;39789;53.216;5.624;2022-08-21T01:23:38;15.90;99.90
53876;DHT22;39789;53.216;5.624;2022-08-21T01:26:05;15.90;99.90
53876;DHT22;39789;53.216;5.624;2022-08-21T01:28:37;15.90;99.90
53876;DHT22;39789;53.216;5.624;2022-08-21T01:31:06;15.90;99.90
53876;DHT22;39789;53.216;5.624;2022-08-21T01:33:33;15.80;99.90
53876;DHT22;39789;53.216;5.624;2022-08-21T01:35:59;15.80;99.90
53876;DHT22;39789;53.216;5.624;2022-08-21T01:38:24;15.70;99.90
53876;DHT22;39789;53.216;5.624;2022-08-21T01:40:50;15.70;99.90
53876;DHT22;39789;53.216;5.624;2022-08-21T01:43:16;15.80;99.90
53876;DHT22;39789;53.216;5.624;2022-08-21T01:45:42;15.50;99.90
53876;DHT22;39789;53.216;5.624;2022-08-21T01:48:07;15.50;99.90
53876;DHT22;39789;53.216;5.624;2022-08-21T01:50:33;15.50;99.90
53876;DHT22;39789;53.216;5.624;2022-08-21T01:52:59;15.50;99.90
53876;DHT22;39789;53.216;5.624;2022-08-21T01:55:25;15.70;99.90
53876;DHT22;39789;53.216;5.624;2022-08-21T01:57:50;15.40;99.90
53876;DHT22;39789;53.216;5.624;2022-08-21T02:00:19;15.40;99.90
53876;DHT22;39789;53.216;5.624;2022-08-21T02:02:48;15.30;99.90
53876;DHT22;39789;53.216;5.624;2022-08-21T02:05:13;15.30;99.90
53876;DHT22;39789;53.216;5.624;2022-08-21T02:07:48;15.30;99.90
53876;DHT22;39789;53.216;5.624;2022-08-21T02:10:18;15.30;99.90
53876;DHT22;39789;53.216;5.624;2022-08-21T02:12:45;15.30;99.90
53876;DHT22;39789;53.216;5.624;2022-08-21T02:15:10;15.30;99.90
53876;DHT22;39789;53.216;5.624;2022-08-21T02:17:49;15.40;99.90
53876;DHT22;39789;53.216;5.624;2022-08-21T02:20:19;15.30;99.90
53876;DHT22;39789;53.216;5.624;2022-08-21T02:22:45;15.30;99.90
53876;DHT22;39789;53.216;5.624;2022-08-21T02:25:11;15.30;99.90
53876;DHT22;39789;53.216;5.624;2022-08-21T02:27:41;15.20;99.90
53876;DHT22;39789;53.216;5.624;2022-08-21T02:30:11;15.20;99.90
53876;DHT22;39789;53.216;5.624;2022-08-21T02:32:37;15.10;99.90
53876;DHT22;39789;53.216;5.624;2022-08-21T02:35:03;15.10;99.90
53876;DHT22;39789;53.216;5.624;2022-08-21T02:37:29;15.10;99.90
53876;DHT22;39789;53.216;5.624;2022-08-21T02:39:54;15.00;99.90
53876;DHT22;39789;53.216;5.624;2022-08-21T02:42:20;15.00;99.90
53876;DHT22;39789;53.216;5.624;2022-08-21T02:44:45;15.00;99.90
53876;DHT22;39789;53.216;5.624;2022-08-21T02:47:11;15.00;99.90
53876;DHT22;39789;53.216;5.624;2022-08-21T02:49:37;15.10;99.90
53876;DHT22;39789;53.216;5.624;2022-08-21T02:52:02;15.00;99.90
53876;DHT22;39789;53.216;5.624;2022-08-21T02:54:31;14.90;99.90
53876;DHT22;39789;53.216;5.624;2022-08-21T02:56:57;14.90;99.90
53876;DHT22;39789;53.216;5.624;2022-08-21T02:59:22;14.80;99.90
53876;DHT22;39789;53.216;5.624;2022-08-21T03:01:48;14.80;99.90
53876;DHT22;39789;53.216;5.624;2022-08-21T03:04:14;14.90;99.90
53876;DHT22;39789;53.216;5.624;2022-08-21T03:06:39;14.80;99.90
53876;DHT22;39789;53.216;5.624;2022-08-21T03:09:05;14.80;99.90
53876;DHT22;39789;53.216;5.624;2022-08-21T03:11:31;14.80;99.90
53876;DHT22;39789;53.216;5.624;2022-08-21T03:13:56;14.80;99.90
53876;DHT22;39789;53.216;5.624;2022-08-21T03:16:22;14.80;99.90
53876;DHT22;39789;53.216;5.624;2022-08-21T03:18:47;14.80;99.90
53876;DHT22;39789;53.216;5.624;2022-08-21T03:21:13;14.80;99.90
53876;DHT22;39789;53.216;5.624;2022-08-21T03:23:39;14.80;99.90
53876;DHT22;39789;53.216;5.624;2022-08-21T03:26:07;15.30;99.90
53876;DHT22;39789;53.216;5.624;2022-08-21T03:28:33;14.80;99.90
53876;DHT22;39789;53.216;5.624;2022-08-21T03:30:58;14.80;99.90
53876;DHT22;39789;53.216;5.624;2022-08-21T03:33:24;14.80;99.90
53876;DHT22;39789;53.216;5.624;2022-08-21T03:36:00;14.70;99.90
53876;DHT22;39789;53.216;5.624;2022-08-21T03:38:28;14.70;99.90
53876;DHT22;39789;53.216;5.624;2022-08-21T03:40:54;14.70;99.90
53876;DHT22;39789;53.216;5.624;2022-08-21T03:43:20;14.70;99.90
53876;DHT22;39789;53.216;5.624;2022-08-21T03:45:46;14.60;99.90
53876;DHT22;39789;53.216;5.624;2022-08-21T03:48:11;14.60;99.90
53876;DHT22;39789;53.216;5.624;2022-08-21T03:50:41;14.60;99.90
53876;DHT22;39789;53.216;5.624;2022-08-21T03:53:09;14.60;99.90
53876;DHT22;39789;53.216;5.624;2022-08-21T03:55:34;14.60;99.90
53876;DHT22;39789;53.216;5.624;2022-08-21T03:58:00;14.40;99.90
53876;DHT22;39789;53.216;5.624;2022-08-21T04:00:26;14.60;99.90
53876;DHT22;39789;53.216;5.624;2022-08-21T04:02:52;14.60;99.90
53876;DHT22;39789;53.216;5.624;2022-08-21T04:05:19;14.70;99.90
53876;DHT22;39789;53.216;5.624;2022-08-21T04:07:53;14.70;99.90
53876;DHT22;39789;53.216;5.624;2022-08-21T04:10:20;14.70;99.90
53876;DHT22;39789;53.216;5.624;2022-08-21T04:12:45;14.70;99.90
53876;DHT22;39789;53.216;5.624;2022-08-21T04:15:11;14.70;99.90
53876;DHT22;39789;53.216;5.624;2022-08-21T04:17:37;14.80;99.90
53876;DHT22;39789;53.216;5.624;2022-08-21T04:20:03;14.70;99.90
53876;DHT22;39789;53.216;5.624;2022-08-21T04:22:29;14.70;99.90
53876;DHT22;39789;53.216;5.624;2022-08-21T04:24:55;14.70;99.90
53876;DHT22;39789;53.216;5.624;2022-08-21T04:27:20;14.80;99.90
53876;DHT22;39789;53.216;5.624;2022-08-21T04:29:46;14.70;99.90
53876;DHT22;39789;53.216;5.624;2022-08-21T04:32:11;14.70;99.90
53876;DHT22;39789;53.216;5.624;2022-08-21T04:34:37;14.80;99.90
53876;DHT22;39789;53.216;5.624;2022-08-21T04:37:03;14.80;99.90
53876;DHT22;39789;53.216;5.624;2022-08-21T04:39:29;14.80;99.90
53876;DHT22;39789;53.216;5.624;2022-08-21T04:41:54;14.90;99.90
53876;DHT22;39789;53.216;5.624;2022-08-21T04:44:20;14.90;99.90
53876;DHT22;39789;53.216;5.624;2022-08-21T04:46:45;14.90;99.90
53876;DHT22;39789;53.216;5.624;2022-08-21T04:49:11;14.90;99.90
53876;DHT22;39789;53.216;5.624;2022-08-21T04:51:37;15.30;99.90
53876;DHT22;39789;53.216;5.624;2022-08-21T04:54:07;15.20;99.90
53876;DHT22;39789;53.216;5.624;2022-08-21T04:56:47;15.00;99.90
53876;DHT22;39789;53.216;5.624;2022-08-21T04:59:24;15.00;99.90
53876;DHT22;39789;53.216;5.624;2022-08-21T05:01:52;15.00;99.90
53876;DHT22;39789;53.216;5.624;2022-08-21T05:04:24;15.20;99.90
53876;DHT22;39789;53.216;5.624;2022-08-21T05:06:52;15.20;99.90
53876;DHT22;39789;53.216;5.624;2022-08-21T05:09:20;15.30;99.90
53876;DHT22;39789;53.216;5.624;2022-08-21T05:11:47;15.40;99.90
53876;DHT22;39789;53.216;5.624;2022-08-21T05:14:14;15.50;99.90
53876;DHT22;39789;53.216;5.624;2022-08-21T05:16:41;15.70;99.90
53876;DHT22;39789;53.216;5.624;2022-08-21T05:19:09;15.80;99.90
53876;DHT22;39789;53.216;5.624;2022-08-21T05:21:36;15.90;99.90
53876;DHT22;39789;53.216;5.624;2022-08-21T05:24:03;16.20;99.90
53876;DHT22;39789;53.216;5.624;2022-08-21T05:26:28;16.30;99.90
53876;DHT22;39789;53.216;5.624;2022-08-21T05:28:55;16.40;99.90
53876;DHT22;39789;53.216;5.624;2022-08-21T05:31:21;16.60;99.90
53876;DHT22;39789;53.216;5.624;2022-08-21T05:33:47;16.70;99.90
53876;DHT22;39789;53.216;5.624;2022-08-21T05:36:13;16.80;99.90
53876;DHT22;39789;53.216;5.624;2022-08-21T05:38:39;16.90;99.90
53876;DHT22;39789;53.216;5.624;2022-08-21T05:41:04;17.00;99.90
53876;DHT22;39789;53.216;5.624;2022-08-21T05:43:30;17.10;99.90
53876;DHT22;39789;53.216;5.624;2022-08-21T05:45:58;17.20;99.90
53876;DHT22;39789;53.216;5.624;2022-08-21T05:48:24;17.30;99.90
53876;DHT22;39789;53.216;5.624;2022-08-21T05:50:51;17.40;99.90
53876;DHT22;39789;53.216;5.624;2022-08-21T05:53:19;17.50;99.90
53876;DHT22;39789;53.216;5.624;2022-08-21T05:55:45;17.50;99.90
53876;DHT22;39789;53.216;5.624;2022-08-21T05:58:12;17.60;99.90
53876;DHT22;39789;53.216;5.624;2022-08-21T06:00:38;17.70;99.90
53876;DHT22;39789;53.216;5.624;2022-08-21T06:03:03;17.80;99.90
53876;DHT22;39789;53.216;5.624;2022-08-21T06:05:29;17.80;99.90
53876;DHT22;39789;53.216;5.624;2022-08-21T06:07:55;18.10;99.90
53876;DHT22;39789;53.216;5.624;2022-08-21T06:10:21;18.00;99.90
53876;DHT22;39789;53.216;5.624;2022-08-21T06:12:47;18.10;99.90
53876;DHT22;39789;53.216;5.624;2022-08-21T06:15:20;18.10;99.90
53876;DHT22;39789;53.216;5.624;2022-08-21T06:17:46;18.20;99.90
53876;DHT22;39789;53.216;5.624;2022-08-21T06:20:11;18.20;99.90
53876;DHT22;39789;53.216;5.624;2022-08-21T06:22:37;18.30;99.90
53876;DHT22;39789;53.216;5.624;2022-08-21T06:25:03;18.40;99.90
53876;DHT22;39789;53.216;5.624;2022-08-21T06:27:29;18.40;99.90
53876;DHT22;39789;53.216;5.624;2022-08-21T06:29:54;18.50;99.90
53876;DHT22;39789;53.216;5.624;2022-08-21T06:32:22;18.50;99.90
53876;DHT22;39789;53.216;5.624;2022-08-21T06:34:48;18.60;99.90
53876;DHT22;39789;53.216;5.624;2022-08-21T06:37:13;18.70;99.90
53876;DHT22;39789;53.216;5.624;2022-08-21T06:39:40;18.70;99.90
53876;DHT22;39789;53.216;5.624;2022-08-21T06:42:06;18.80;99.90
53876;DHT22;39789;53.216;5.624;2022-08-21T06:44:31;18.90;99.90
53876;DHT22;39789;53.216;5.624;2022-08-21T06:46:57;19.00;99.90
53876;DHT22;39789;53.216;5.624;2022-08-21T06:49:22;19.00;99.90
53876;DHT22;39789;53.216;5.624;2022-08-21T06:51:48;19.10;99.90
53876;DHT22;39789;53.216;5.624;2022-08-21T06:54:14;19.10;99.90
53876;DHT22;39789;53.216;5.624;2022-08-21T06:56:39;19.20;99.90
53876;DHT22;39789;53.216;5.624;2022-08-21T06:59:05;19.30;99.90
53876;DHT22;39789;53.216;5.624;2022-08-21T07:01:31;19.30;99.90
53876;DHT22;39789;53.216;5.624;2022-08-21T07:03:57;19.30;99.90
53876;DHT22;39789;53.216;5.624;2022-08-21T07:06:23;19.40;99.90
53876;DHT22;39789;53.216;5.624;2022-08-21T07:08:52;19.40;99.90
53876;DHT22;39789;53.216;5.624;2022-08-21T07:11:22;19.40;99.90
53876;DHT22;39789;53.216;5.624;2022-08-21T07:13:49;19.30;99.90
53876;DHT22;39789;53.216;5.624;2022-08-21T07:16:16;19.40;99.90
53876;DHT22;39789;53.216;5.624;2022-08-21T07:18:42;19.50;99.90
53876;DHT22;39789;53.216;5.624;2022-08-21T07:21:08;19.50;99.90
53876;DHT22;39789;53.216;5.624;2022-08-21T07:23:37;19.80;99.90
53876;DHT22;39789;53.216;5.624;2022-08-21T07:26:05;19.60;99.90
53876;DHT22;39789;53.216;5.624;2022-08-21T07:28:31;19.80;99.90
53876;DHT22;39789;53.216;5.624;2022-08-21T07:30:58;20.30;99.90
53876;DHT22;39789;53.216;5.624;2022-08-21T07:33:26;19.80;99.90
53876;DHT22;39789;53.216;5.624;2022-08-21T07:35:52;19.80;99.90
53876;DHT22;39789;53.216;5.624;2022-08-21T07:38:18;19.90;99.90
53876;DHT22;39789;53.216;5.624;2022-08-21T07:40:45;19.90;99.90
53876;DHT22;39789;53.216;5.624;2022-08-21T07:43:11;20.40;99.90
53876;DHT22;39789;53.216;5.624;2022-08-21T07:45:37;20.40;99.90
53876;DHT22;39789;53.216;5.624;2022-08-21T07:48:03;20.10;99.90
53876;DHT22;39789;53.216;5.624;2022-08-21T07:50:29;20.50;99.90
53876;DHT22;39789;53.216;5.624;2022-08-21T07:52:55;21.20;99.90
53876;DHT22;39789;53.216;5.624;2022-08-21T07:55:21;22.00;99.90
53876;DHT22;39789;53.216;5.624;2022-08-21T07:57:47;22.70;99.90
53876;DHT22;39789;53.216;5.624;2022-08-21T08:00:17;23.40;99.90
53876;DHT22;39789;53.216;5.624;2022-08-21T08:02:46;23.90;99.90
53876;DHT22;39789;53.216;5.624;2022-08-21T08:05:16;24.20;99.90
53876;DHT22;39789;53.216;5.624;2022-08-21T08:07:42;24.80;99.90
53876;DHT22;39789;53.216;5.624;2022-08-21T08:10:09;25.10;99.90
53876;DHT22;39789;53.216;5.624;2022-08-21T08:12:36;25.50;99.90
53876;DHT22;39789;53.216;5.624;2022-08-21T08:15:02;25.40;99.90
53876;DHT22;39789;53.216;5.624;2022-08-21T08:17:30;25.30;99.90
53876;DHT22;39789;53.216;5.624;2022-08-21T08:19:57;25.40;99.90
53876;DHT22;39789;53.216;5.624;2022-08-21T08:22:23;25.80;99.90
53876;DHT22;39789;53.216;5.624;2022-08-21T08:24:51;25.70;99.90
53876;DHT22;39789;53.216;5.624;2022-08-21T08:27:17;25.80;99.90
53876;DHT22;39789;53.216;5.624;2022-08-21T08:29:43;25.40;99.90
53876;DHT22;39789;53.216;5.624;2022-08-21T08:32:09;24.70;99.90
53876;DHT22;39789;53.216;5.624;2022-08-21T08:34:36;24.40;99.90
53876;DHT22;39789;53.216;5.624;2022-08-21T08:37:06;23.80;99.90
53876;DHT22;39789;53.216;5.624;2022-08-21T08:39:32;23.30;99.90
53876;DHT22;39789;53.216;5.624;2022-08-21T08:42:16;23.00;99.90
53876;DHT22;39789;53.216;5.624;2022-08-21T08:44:45;22.90;99.90
53876;DHT22;39789;53.216;5.624;2022-08-21T08:47:14;23.30;99.90
53876;DHT22;39789;53.216;5.624;2022-08-21T08:52:31;23.30;99.90
53876;DHT22;39789;53.216;5.624;2022-08-21T08:57:28;23.30;99.90
53876;DHT22;39789;53.216;5.624;2022-08-21T08:59:58;23.00;99.90
53876;DHT22;39789;53.216;5.624;2022-08-21T09:02:24;22.80;99.90
53876;DHT22;39789;53.216;5.624;2022-08-21T09:04:51;22.60;99.90
53876;DHT22;39789;53.216;5.624;2022-08-21T09:07:35;22.40;99.90
53876;DHT22;39789;53.216;5.624;2022-08-21T09:10:21;22.30;99.90
53876;DHT22;39789;53.216;5.624;2022-08-21T09:21:12;23.00;99.90
53876;DHT22;39789;53.216;5.624;2022-08-21T09:26:48;23.10;99.90
53876;DHT22;39789;53.216;5.624;2022-08-21T09:29:20;23.10;99.90
53876;DHT22;39789;53.216;5.624;2022-08-21T09:31:48;23.60;99.90
53876;DHT22;39789;53.216;5.624;2022-08-21T09:34:24;23.30;99.90
53876;DHT22;39789;53.216;5.624;2022-08-21T09:36:51;23.40;99.90
53876;DHT22;39789;53.216;5.624;2022-08-21T09:42:07;23.10;99.90
53876;DHT22;39789;53.216;5.624;2022-08-21T09:44:36;22.80;99.90
53876;DHT22;39789;53.216;5.624;2022-08-21T09:47:06;22.50;99.90
53876;DHT22;39789;53.216;5.624;2022-08-21T09:49:35;22.60;99.90
53876;DHT22;39789;53.216;5.624;2022-08-21T09:52:15;22.60;99.90
53876;DHT22;39789;53.216;5.624;2022-08-21T09:54:41;22.70;99.90
53876;DHT22;39789;53.216;5.624;2022-08-21T09:59:54;22.80;99.90
53876;DHT22;39789;53.216;5.624;2022-08-21T10:02:27;22.60;99.90
53876;DHT22;39789;53.216;5.624;2022-08-21T10:04:59;22.60;99.90
53876;DHT22;39789;53.216;5.624;2022-08-21T10:07:29;22.80;99.90
53876;DHT22;39789;53.216;5.624;2022-08-21T10:13:10;22.90;99.90
53876;DHT22;39789;53.216;5.624;2022-08-21T10:18:40;23.20;99.90
53876;DHT22;39789;53.216;5.624;2022-08-21T10:26:53;23.40;99.90
53876;DHT22;39789;53.216;5.624;2022-08-21T10:29:38;23.40;99.90
53876;DHT22;39789;53.216;5.624;2022-08-21T10:40:35;22.90;99.90
53876;DHT22;39789;53.216;5.624;2022-08-21T10:43:35;22.80;99.90
53876;DHT22;39789;53.216;5.624;2022-08-21T10:52:17;22.80;99.90
53876;DHT22;39789;53.216;5.624;2022-08-21T10:57:41;23.10;99.90
53876;DHT22;39789;53.216;5.624;2022-08-21T11:00:13;23.20;99.90
53876;DHT22;39789;53.216;5.624;2022-08-21T11:02:45;23.20;99.90
53876;DHT22;39789;53.216;5.624;2022-08-21T11:05:24;23.30;99.90
53876;DHT22;39789;53.216;5.624;2022-08-21T11:08:00;23.30;99.90
53876;DHT22;39789;53.216;5.624;2022-08-21T11:10:27;23.40;99.90
53876;DHT22;39789;53.216;5.624;2022-08-21T11:13:00;23.50;99.90
53876;DHT22;39789;53.216;5.624;2022-08-21T11:15:31;23.40;99.90
53876;DHT22;39789;53.216;5.624;2022-08-21T11:18:25;23.60;99.90
53876;DHT22;39789;53.216;5.624;2022-08-21T11:24:14;23.30;99.90
53876;DHT22;39789;53.216;5.624;2022-08-21T11:27:09;23.20;99.90
53876;DHT22;39789;53.216;5.624;2022-08-21T11:29:41;23.20;99.90
53876;DHT22;39789;53.216;5.624;2022-08-21T11:35:10;23.00;99.90
53876;DHT22;39789;53.216;5.624;2022-08-21T11:47:11;23.20;99.90
53876;DHT22;39789;53.216;5.624;2022-08-21T11:52:26;23.30;99.90
53876;DHT22;39789;53.216;5.624;2022-08-21T11:55:13;23.30;99.90
53876;DHT22;39789;53.216;5.624;2022-08-21T12:01:27;23.40;99.90
53876;DHT22;39789;53.216;5.624;2022-08-21T12:04:03;23.50;99.90
53876;DHT22;39789;53.216;5.624;2022-08-21T12:06:37;23.40;99.90
53876;DHT22;39789;53.216;5.624;2022-08-21T12:12:34;23.20;99.90
53876;DHT22;39789;53.216;5.624;2022-08-21T12:17:39;23.00;99.90
53876;DHT22;39789;53.216;5.624;2022-08-21T12:20:22;23.20;99.90
53876;DHT22;39789;53.216;5.624;2022-08-21T12:25:44;23.40;99.90
53876;DHT22;39789;53.216;5.624;2022-08-21T12:28:21;23.50;99.90
53876;DHT22;39789;53.216;5.624;2022-08-21T12:30:49;23.60;99.90
53876;DHT22;39789;53.216;5.624;2022-08-21T12:33:37;23.70;99.90
53876;DHT22;39789;53.216;5.624;2022-08-21T12:36:12;23.60;99.90
53876;DHT22;39789;53.216;5.624;2022-08-21T12:38:51;23.30;99.90
53876;DHT22;39789;53.216;5.624;2022-08-21T12:41:26;23.00;99.90
53876;DHT22;39789;53.216;5.624;2022-08-21T12:44:08;22.80;99.90
53876;DHT22;39789;53.216;5.624;2022-08-21T12:47:27;22.60;99.90
53876;DHT22;39789;53.216;5.624;2022-08-21T12:49:43;22.60;99.90
53876;DHT22;39789;53.216;5.624;2022-08-21T12:52:19;22.40;99.90
53876;DHT22;39789;53.216;5.624;2022-08-21T12:54:46;22.50;99.90
53876;DHT22;39789;53.216;5.624;2022-08-21T12:57:24;22.80;99.90
53876;DHT22;39789;53.216;5.624;2022-08-21T12:59:59;22.90;99.90
53876;DHT22;39789;53.216;5.624;2022-08-21T13:02:46;23.10;99.90
53876;DHT22;39789;53.216;5.624;2022-08-21T13:09:03;23.20;99.90
53876;DHT22;39789;53.216;5.624;2022-08-21T13:11:29;23.30;99.90
53876;DHT22;39789;53.216;5.624;2022-08-21T13:13:55;23.30;99.90
53876;DHT22;39789;53.216;5.624;2022-08-21T13:16:25;23.30;99.90
53876;DHT22;39789;53.216;5.624;2022-08-21T13:19:00;23.40;99.90
53876;DHT22;39789;53.216;5.624;2022-08-21T13:21:38;23.30;99.90
53876;DHT22;39789;53.216;5.624;2022-08-21T13:26:35;23.40;99.90
53876;DHT22;39789;53.216;5.624;2022-08-21T13:29:07;23.50;99.90
53876;DHT22;39789;53.216;5.624;2022-08-21T13:31:36;23.30;99.90
53876;DHT22;39789;53.216;5.624;2022-08-21T13:34:04;23.60;99.90
53876;DHT22;39789;53.216;5.624;2022-08-21T13:36:34;23.50;99.90
53876;DHT22;39789;53.216;5.624;2022-08-21T13:39:03;23.40;99.90
53876;DHT22;39789;53.216;5.624;2022-08-21T13:41:35;23.20;99.90
53876;DHT22;39789;53.216;5.624;2022-08-21T13:44:05;23.20;99.90
53876;DHT22;39789;53.216;5.624;2022-08-21T13:46:34;23.10;99.90
53876;DHT22;39789;53.216;5.624;2022-08-21T13:49:03;23.00;99.90
53876;DHT22;39789;53.216;5.624;2022-08-21T13:51:30;23.00;99.90
53876;DHT22;39789;53.216;5.624;2022-08-21T13:53:56;22.90;99.90
53876;DHT22;39789;53.216;5.624;2022-08-21T13:56:29;22.90;99.90
53876;DHT22;39789;53.216;5.624;2022-08-21T13:58:57;22.80;99.90
53876;DHT22;39789;53.216;5.624;2022-08-21T14:03:54;22.60;99.90
53876;DHT22;39789;53.216;5.624;2022-08-21T14:06:26;23.10;99.90
53876;DHT22;39789;53.216;5.624;2022-08-21T14:08:59;22.60;99.90
53876;DHT22;39789;53.216;5.624;2022-08-21T14:11:27;22.60;99.90
53876;DHT22;39789;53.216;5.624;2022-08-21T14:19:36;22.50;99.90
53876;DHT22;39789;53.216;5.624;2022-08-21T14:22:44;22.50;99.90
53876;DHT22;39789;53.216;5.624;2022-08-21T14:27:43;22.60;99.90
53876;DHT22;39789;53.216;5.624;2022-08-21T14:30:34;22.60;99.90
53876;DHT22;39789;53.216;5.624;2022-08-21T14:33:02;22.70;99.90
53876;DHT22;39789;53.216;5.624;2022-08-21T14:35:28;22.60;99.90
53876;DHT22;39789;53.216;5.624;2022-08-21T14:37:54;22.60;99.90
53876;DHT22;39789;53.216;5.624;2022-08-21T14:40:22;22.60;99.90
53876;DHT22;39789;53.216;5.624;2022-08-21T14:42:48;22.60;99.90
53876;DHT22;39789;53.216;5.624;2022-08-21T14:45:18;22.50;99.90
53876;DHT22;39789;53.216;5.624;2022-08-21T14:47:44;22.60;99.90
53876;DHT22;39789;53.216;5.624;2022-08-21T14:50:11;22.40;99.90
53876;DHT22;39789;53.216;5.624;2022-08-21T14:52:38;23.00;99.90
53876;DHT22;39789;53.216;5.624;2022-08-21T14:55:05;22.40;99.90
53876;DHT22;39789;53.216;5.624;2022-08-21T14:57:32;22.50;99.90
53876;DHT22;39789;53.216;5.624;2022-08-21T14:59:58;23.20;99.90
53876;DHT22;39789;53.216;5.624;2022-08-21T15:02:25;22.70;99.90
53876;DHT22;39789;53.216;5.624;2022-08-21T15:04:51;22.50;99.90
53876;DHT22;39789;53.216;5.624;2022-08-21T15:07:19;22.20;99.90
53876;DHT22;39789;53.216;5.624;2022-08-21T15:09:45;22.20;99.90
53876;DHT22;39789;53.216;5.624;2022-08-21T15:12:12;21.20;99.90
53876;DHT22;39789;53.216;5.624;2022-08-21T15:14:46;22.10;99.90
53876;DHT22;39789;53.216;5.624;2022-08-21T15:17:12;22.20;99.90
53876;DHT22;39789;53.216;5.624;2022-08-21T15:19:39;22.20;99.90
53876;DHT22;39789;53.216;5.624;2022-08-21T15:22:05;22.10;99.90
53876;DHT22;39789;53.216;5.624;2022-08-21T15:24:31;22.20;99.90
53876;DHT22;39789;53.216;5.624;2022-08-21T15:26:58;22.20;99.90
53876;DHT22;39789;53.216;5.624;2022-08-21T15:29:24;22.90;99.90
53876;DHT22;39789;53.216;5.624;2022-08-21T15:32:02;22.00;99.90
53876;DHT22;39789;53.216;5.624;2022-08-21T15:34:39;22.20;99.90
53876;DHT22;39789;53.216;5.624;2022-08-21T15:37:05;22.20;99.90
53876;DHT22;39789;53.216;5.624;2022-08-21T15:42:40;22.10;99.90
53876;DHT22;39789;53.216;5.624;2022-08-21T15:45:07;22.10;99.90
53876;DHT22;39789;53.216;5.624;2022-08-21T15:47:34;22.10;99.90
53876;DHT22;39789;53.216;5.624;2022-08-21T15:50:02;22.10;99.90
53876;DHT22;39789;53.216;5.624;2022-08-21T15:52:28;22.40;99.90
53876;DHT22;39789;53.216;5.624;2022-08-21T15:54:53;22.00;99.90
53876;DHT22;39789;53.216;5.624;2022-08-21T15:57:22;22.60;99.90
53876;DHT22;39789;53.216;5.624;2022-08-21T15:59:57;22.00;99.90
53876;DHT22;39789;53.216;5.624;2022-08-21T16:02:30;21.80;99.90
53876;DHT22;39789;53.216;5.624;2022-08-21T16:04:57;21.80;99.90
53876;DHT22;39789;53.216;5.624;2022-08-21T16:07:24;22.20;99.90
53876;DHT22;39789;53.216;5.624;2022-08-21T16:09:50;21.50;99.90
53876;DHT22;39789;53.216;5.624;2022-08-21T16:12:41;21.80;99.90
53876;DHT22;39789;53.216;5.624;2022-08-21T16:15:12;21.70;99.90
53876;DHT22;39789;53.216;5.624;2022-08-21T16:17:39;21.60;99.90
53876;DHT22;39789;53.216;5.624;2022-08-21T16:20:08;21.50;99.90
53876;DHT22;39789;53.216;5.624;2022-08-21T16:22:34;21.40;99.90
53876;DHT22;39789;53.216;5.624;2022-08-21T16:25:00;21.30;99.90
53876;DHT22;39789;53.216;5.624;2022-08-21T16:27:26;21.30;99.90
53876;DHT22;39789;53.216;5.624;2022-08-21T16:29:51;21.30;99.90
53876;DHT22;39789;53.216;5.624;2022-08-21T16:32:17;21.60;99.90
53876;DHT22;39789;53.216;5.624;2022-08-21T16:34:47;21.40;99.90
53876;DHT22;39789;53.216;5.624;2022-08-21T16:37:14;21.50;99.90
53876;DHT22;39789;53.216;5.624;2022-08-21T16:39:40;21.50;99.90
53876;DHT22;39789;53.216;5.624;2022-08-21T16:42:06;22.10;99.90
53876;DHT22;39789;53.216;5.624;2022-08-21T16:44:32;21.50;99.90
53876;DHT22;39789;53.216;5.624;2022-08-21T16:47:00;21.50;99.90
53876;DHT22;39789;53.216;5.624;2022-08-21T16:49:26;21.50;99.90
53876;DHT22;39789;53.216;5.624;2022-08-21T16:51:52;21.50;99.90
53876;DHT22;39789;53.216;5.624;2022-08-21T16:54:18;21.50;99.90
53876;DHT22;39789;53.216;5.624;2022-08-21T16:56:44;21.90;99.90
53876;DHT22;39789;53.216;5.624;2022-08-21T16:59:11;22.10;99.90
53876;DHT22;39789;53.216;5.624;2022-08-21T17:01:37;21.40;99.90
53876;DHT22;39789;53.216;5.624;2022-08-21T17:04:03;22.00;99.90
53876;DHT22;39789;53.216;5.624;2022-08-21T17:06:29;21.80;99.90
53876;DHT22;39789;53.216;5.624;2022-08-21T17:08:56;21.90;99.90
53876;DHT22;39789;53.216;5.624;2022-08-21T17:11:28;20.90;99.90
53876;DHT22;39789;53.216;5.624;2022-08-21T17:13:55;20.80;99.90
53876;DHT22;39789;53.216;5.624;2022-08-21T17:16:22;20.60;99.90
53876;DHT22;39789;53.216;5.624;2022-08-21T17:18:50;20.80;99.90
53876;DHT22;39789;53.216;5.624;2022-08-21T17:21:15;21.00;99.90